Terminal Aerodrome Forecast
Issued by NWS Central Illinois

Home | Current Version | Previous Version | Text Only | Print | Product List | Glossary On
Versions: 1 2 3 4 5 6 7 8 9 10 11 12 13 14 15 16 17 18 19 20 21 22 23 24 25 26 27 28
000
FTUS43 KILX 272300
TAFSPI
TAF
KSPI 272338Z 2800/2824 03005KT P6SM BKN015
     FM280600 10005KT P6SM SCT015
     FM281300 15012KT P6SM SCT250
     FM281600 15015G25KT P6SM SCT250=

USA.gov is the U.S. government's official web portal to all federal, state and local government web resources and services.